createdAt,value
2019-03-16T00:00:51.278Z,4.10
2019-03-16T00:03:19.188Z,4.10
2019-03-16T00:05:47.434Z,4.00
2019-03-16T00:08:15.678Z,4.00
2019-03-16T00:10:43.804Z,3.90
2019-03-16T00:13:11.892Z,3.90
2019-03-16T00:15:39.789Z,3.80
2019-03-16T00:18:07.894Z,3.90
2019-03-16T00:20:35.825Z,3.80
2019-03-16T00:23:03.735Z,3.80
2019-03-16T00:25:31.885Z,4.00
2019-03-16T00:27:59.669Z,3.90
2019-03-16T00:30:27.513Z,3.90
2019-03-16T00:32:55.288Z,3.80
2019-03-16T00:35:23.207Z,4.00
2019-03-16T00:37:51.036Z,4.10
2019-03-16T00:40:19.047Z,4.00
2019-03-16T00:42:46.833Z,3.90
2019-03-16T00:45:14.838Z,4.00
2019-03-16T00:47:42.720Z,3.80
2019-03-16T00:50:11.122Z,3.90
2019-03-16T00:52:39.218Z,2.70
2019-03-16T00:55:07.247Z,3.60
2019-03-16T00:57:35.139Z,3.80
2019-03-16T01:00:03.385Z,4.20
2019-03-16T01:02:32.887Z,3.60
2019-03-16T01:05:00.986Z,3.50
2019-03-16T01:07:28.827Z,4.00
2019-03-16T01:09:57.310Z,3.50
2019-03-16T01:12:25.372Z,3.60
2019-03-16T01:14:53.536Z,3.40
2019-03-16T01:17:21.602Z,3.40
2019-03-16T01:19:49.867Z,4.10
2019-03-16T01:22:17.796Z,3.30
2019-03-16T01:24:45.721Z,3.40
2019-03-16T01:27:13.682Z,3.30
2019-03-16T01:29:41.744Z,3.40
2019-03-16T01:32:09.885Z,3.30
2019-03-16T01:34:37.969Z,3.30
2019-03-16T01:37:05.925Z,3.40
2019-03-16T01:39:33.684Z,3.40
2019-03-16T01:42:01.808Z,4.40
2019-03-16T01:44:29.746Z,3.70
2019-03-16T01:46:57.534Z,3.60
2019-03-16T01:49:25.656Z,4.10
2019-03-16T01:51:53.603Z,3.50
2019-03-16T01:54:21.436Z,3.40
2019-03-16T01:56:49.436Z,3.50
2019-03-16T01:59:17.327Z,3.50
2019-03-16T02:01:45.204Z,3.40
2019-03-16T02:04:13.493Z,3.50
2019-03-16T02:06:41.364Z,3.50
2019-03-16T02:09:09.421Z,3.40
2019-03-16T02:11:37.322Z,3.60
2019-03-16T02:14:05.484Z,3.70
2019-03-16T02:16:33.515Z,3.70
2019-03-16T02:19:01.346Z,3.50
2019-03-16T02:21:29.386Z,4.20
2019-03-16T02:23:57.271Z,3.50
2019-03-16T02:26:25.229Z,3.60
2019-03-16T02:28:52.959Z,3.60
2019-03-16T02:31:20.890Z,3.40
2019-03-16T02:33:48.847Z,3.50
2019-03-16T02:36:16.841Z,3.30
2019-03-16T02:38:44.781Z,3.20
2019-03-16T02:41:12.652Z,3.10
2019-03-16T02:43:40.700Z,3.30
2019-03-16T02:46:08.555Z,4.10
2019-03-16T02:48:36.386Z,3.20
2019-03-16T02:53:32.136Z,3.10
2019-03-16T02:55:59.918Z,2.60
2019-03-16T02:58:28.237Z,3.20
2019-03-16T03:00:56.142Z,3.50
2019-03-16T03:03:29.924Z,3.20
2019-03-16T03:05:53.799Z,3.30
2019-03-16T03:08:21.607Z,3.30
2019-03-16T03:10:49.634Z,3.50
2019-03-16T03:13:17.605Z,3.70
2019-03-16T03:15:45.615Z,4.10
2019-03-16T03:18:13.593Z,3.50
2019-03-16T03:20:41.742Z,3.60
2019-03-16T03:23:09.647Z,3.70
2019-03-16T03:25:37.637Z,3.70
2019-03-16T03:28:05.690Z,3.80
2019-03-16T03:30:33.673Z,2.30
2019-03-16T03:33:01.768Z,3.80
2019-03-16T03:35:29.887Z,1.80
2019-03-16T03:37:57.943Z,3.60
2019-03-16T03:40:26.020Z,3.80
2019-03-16T03:42:53.941Z,3.70
2019-03-16T03:45:22.010Z,3.60
2019-03-16T03:47:49.934Z,4.00
2019-03-16T03:50:17.900Z,3.90
2019-03-16T03:52:46.056Z,4.00
2019-03-16T03:55:14.047Z,3.60
2019-03-16T03:57:42.362Z,4.10
2019-03-16T04:00:10.865Z,3.90
2019-03-16T04:02:39.116Z,3.90
2019-03-16T04:05:07.357Z,4.00
2019-03-16T04:07:35.837Z,3.80
2019-03-16T04:10:05.133Z,3.80
2019-03-16T04:12:33.137Z,4.00
2019-03-16T04:15:01.167Z,3.80
2019-03-16T04:17:29.130Z,3.90
2019-03-16T04:19:57.298Z,3.80
2019-03-16T04:22:25.555Z,3.80
2019-03-16T04:24:53.696Z,3.60
2019-03-16T04:27:21.811Z,3.60
2019-03-16T04:29:49.817Z,3.70
2019-03-16T04:32:17.770Z,3.70
2019-03-16T04:34:46.180Z,3.80
2019-03-16T04:37:14.157Z,3.70
2019-03-16T04:39:42.373Z,3.60
2019-03-16T04:42:09.866Z,3.70
2019-03-16T04:44:37.396Z,4.40
2019-03-16T04:47:04.960Z,4.00
2019-03-16T04:49:32.566Z,4.00
2019-03-16T04:52:00.099Z,4.10
2019-03-16T04:54:27.763Z,4.00
2019-03-16T04:56:55.296Z,4.10
2019-03-16T04:59:22.887Z,4.10
2019-03-16T05:01:50.443Z,4.20
2019-03-16T05:04:17.980Z,4.30
2019-03-16T05:06:45.590Z,4.40
2019-03-16T05:09:13.139Z,4.50
2019-03-16T05:11:40.680Z,4.60
2019-03-16T05:14:08.222Z,4.60
2019-03-16T05:16:35.829Z,4.70
2019-03-16T05:19:03.410Z,4.90
2019-03-16T05:21:31.044Z,5.00
2019-03-16T05:23:58.574Z,5.10
2019-03-16T05:26:26.160Z,5.00
2019-03-16T05:28:53.745Z,5.00
2019-03-16T05:31:21.311Z,5.10
2019-03-16T05:33:48.843Z,5.10
2019-03-16T05:36:16.445Z,5.10
2019-03-16T05:38:44.079Z,5.20
2019-03-16T05:41:11.609Z,5.30
2019-03-16T05:43:39.300Z,5.40
2019-03-16T05:46:06.897Z,5.50
2019-03-16T05:48:34.381Z,5.60
2019-03-16T05:51:01.965Z,5.70
2019-03-16T05:53:29.575Z,5.90
2019-03-16T05:55:57.172Z,6.20
2019-03-16T05:58:24.727Z,6.20
2019-03-16T06:00:52.366Z,6.30
2019-03-16T06:03:20.000Z,6.50
2019-03-16T06:05:47.500Z,6.70
2019-03-16T06:08:15.032Z,6.70
2019-03-16T06:10:42.589Z,6.80
2019-03-16T06:13:10.148Z,6.80
2019-03-16T06:15:37.720Z,6.80
2019-03-16T06:18:05.311Z,6.70
2019-03-16T06:20:32.839Z,6.80
2019-03-16T06:23:00.388Z,7.00
2019-03-16T06:25:27.881Z,7.10
2019-03-16T06:27:55.461Z,7.10
2019-03-16T06:30:23.015Z,7.20
2019-03-16T06:32:50.514Z,7.30
2019-03-16T06:35:24.318Z,7.30
2019-03-16T06:37:47.945Z,7.40
2019-03-16T06:40:15.468Z,7.50
2019-03-16T06:42:43.020Z,7.70
2019-03-16T06:45:10.775Z,7.80
2019-03-16T06:47:38.316Z,8.00
2019-03-16T06:50:06.741Z,8.40
2019-03-16T06:52:34.318Z,8.50
2019-03-16T06:55:01.894Z,8.50
2019-03-16T06:57:29.437Z,8.50
2019-03-16T06:59:56.971Z,8.50
2019-03-16T07:02:24.465Z,8.50
2019-03-16T07:04:52.143Z,8.70
2019-03-16T07:07:19.741Z,8.80
2019-03-16T07:09:47.277Z,8.90
2019-03-16T07:12:14.799Z,9.10
2019-03-16T07:14:42.347Z,8.90
2019-03-16T07:17:09.883Z,9.00
2019-03-16T07:19:37.444Z,9.10
2019-03-16T07:22:05.041Z,9.30
2019-03-16T07:24:32.564Z,9.40
2019-03-16T07:27:00.087Z,9.50
2019-03-16T07:29:27.653Z,9.50
2019-03-16T07:31:55.173Z,9.50
2019-03-16T07:34:22.736Z,9.60
2019-03-16T07:36:50.474Z,9.70
2019-03-16T07:39:18.746Z,9.90
2019-03-16T07:41:47.337Z,9.90
2019-03-16T07:44:14.856Z,9.90
2019-03-16T07:46:42.458Z,9.90
2019-03-16T07:49:10.102Z,10.10
2019-03-16T07:51:37.777Z,10.20
2019-03-16T07:54:05.560Z,10.30
2019-03-16T07:56:33.145Z,10.50
2019-03-16T07:59:00.700Z,10.70
2019-03-16T08:01:28.797Z,10.70
2019-03-16T08:03:57.344Z,10.90
2019-03-16T08:06:24.979Z,10.90
2019-03-16T08:08:52.585Z,10.80
2019-03-16T08:11:20.291Z,10.60
2019-03-16T08:13:48.508Z,10.50
2019-03-16T08:16:16.354Z,10.50
2019-03-16T08:18:44.031Z,10.70
2019-03-16T08:21:11.670Z,10.80
2019-03-16T08:23:39.260Z,11.00
2019-03-16T08:26:06.978Z,11.10
2019-03-16T08:28:34.957Z,11.00
2019-03-16T08:31:03.636Z,10.80
2019-03-16T08:33:31.517Z,10.60
2019-03-16T08:35:59.852Z,10.60
2019-03-16T08:38:27.644Z,10.70
2019-03-16T08:40:55.445Z,10.80
2019-03-16T08:43:23.845Z,10.80
2019-03-16T08:45:53.473Z,10.50
2019-03-16T08:48:23.038Z,10.50
2019-03-16T08:50:50.920Z,10.50
2019-03-16T08:53:18.654Z,10.10
2019-03-16T08:55:46.272Z,10.00
2019-03-16T08:58:14.379Z,9.90
2019-03-16T09:00:43.116Z,10.00
2019-03-16T09:03:13.109Z,10.20
2019-03-16T09:05:40.784Z,10.30
2019-03-16T09:08:09.940Z,10.20
2019-03-16T09:10:38.159Z,10.40
2019-03-16T09:13:05.894Z,10.50
2019-03-16T09:15:33.943Z,10.60
2019-03-16T09:18:05.241Z,10.70
2019-03-16T09:20:36.585Z,10.90
2019-03-16T09:23:05.857Z,10.90
2019-03-16T09:25:34.137Z,10.90
2019-03-16T09:28:02.001Z,11.50
2019-03-16T09:30:29.737Z,11.20
2019-03-16T09:32:57.561Z,11.30
2019-03-16T09:35:25.107Z,11.30
2019-03-16T09:37:53.185Z,11.40
2019-03-16T09:40:21.074Z,11.10
2019-03-16T09:42:48.780Z,11.00
2019-03-16T09:45:16.603Z,10.80
2019-03-16T09:47:44.215Z,10.80
2019-03-16T09:50:11.997Z,10.90
2019-03-16T09:52:39.811Z,10.90
2019-03-16T09:55:07.624Z,10.80
2019-03-16T09:57:37.504Z,11.10
2019-03-16T10:00:07.884Z,11.40
2019-03-16T10:02:37.377Z,11.40
2019-03-16T10:05:05.679Z,11.60
2019-03-16T10:07:33.602Z,11.90
2019-03-16T10:10:01.668Z,11.60
2019-03-16T10:12:29.323Z,11.70
2019-03-16T10:14:57.310Z,12.00
2019-03-16T10:17:24.805Z,12.40
2019-03-16T10:19:57.126Z,12.70
2019-03-16T10:22:30.894Z,12.70
2019-03-16T10:25:01.150Z,12.50
2019-03-16T10:27:29.972Z,12.10
2019-03-16T10:30:05.563Z,12.30
2019-03-16T10:32:34.577Z,12.40
2019-03-16T10:35:04.195Z,12.30
2019-03-16T10:37:32.064Z,13.60
2019-03-16T10:40:00.490Z,12.20
2019-03-16T10:45:55.170Z,11.90
2019-03-16T10:48:21.743Z,12.50
2019-03-16T10:50:53.372Z,12.50
2019-03-16T10:53:21.154Z,12.60
2019-03-16T10:55:49.096Z,13.00
2019-03-16T10:58:17.454Z,13.50
2019-03-16T11:00:45.350Z,13.70
2019-03-16T11:03:26.476Z,13.70
2019-03-16T11:05:54.335Z,13.30
2019-03-16T11:08:22.006Z,13.20
2019-03-16T11:10:49.955Z,13.50
2019-03-16T11:13:17.669Z,13.20
2019-03-16T11:15:45.377Z,13.30
2019-03-16T11:18:13.367Z,13.20
2019-03-16T11:20:41.085Z,13.00
2019-03-16T11:23:08.913Z,13.20
2019-03-16T11:25:36.688Z,13.20
2019-03-16T11:28:04.882Z,13.50
2019-03-16T11:30:32.672Z,13.40
2019-03-16T11:33:00.238Z,12.80
2019-03-16T11:35:27.953Z,13.10
2019-03-16T11:37:55.620Z,13.60
2019-03-16T11:40:23.419Z,13.80
2019-03-16T11:42:51.081Z,13.70
2019-03-16T11:45:18.739Z,13.80
2019-03-16T11:47:46.553Z,13.30
2019-03-16T11:50:14.216Z,13.30
2019-03-16T11:52:41.842Z,13.80
2019-03-16T11:55:09.608Z,13.80
2019-03-16T11:57:37.122Z,13.90
2019-03-16T12:00:04.874Z,14.40
2019-03-16T12:02:32.795Z,14.80
2019-03-16T12:08:46.837Z,15.00
2019-03-16T12:11:17.291Z,14.50
2019-03-16T12:13:45.182Z,14.70
2019-03-16T12:16:13.765Z,15.00
2019-03-16T12:18:41.551Z,15.40
2019-03-16T12:21:09.212Z,15.40
2019-03-16T12:23:37.106Z,15.00
2019-03-16T12:26:05.263Z,14.80
2019-03-16T12:28:32.917Z,14.70
2019-03-16T12:31:00.656Z,15.30
2019-03-16T12:33:28.292Z,15.60
2019-03-16T12:35:56.013Z,15.60
2019-03-16T12:38:23.618Z,15.60
2019-03-16T12:40:51.375Z,15.60
2019-03-16T12:43:19.109Z,15.30
2019-03-16T12:45:46.705Z,15.50
2019-03-16T12:48:14.491Z,15.00
2019-03-16T12:50:42.068Z,15.30
2019-03-16T12:53:09.766Z,15.80
2019-03-16T12:55:37.399Z,16.20
2019-03-16T12:58:14.836Z,15.70
2019-03-16T13:00:42.540Z,15.50
2019-03-16T13:03:10.155Z,15.70
2019-03-16T13:05:38.446Z,15.90
2019-03-16T13:08:06.052Z,15.90
2019-03-16T13:14:09.834Z,16.10
2019-03-16T14:55:33.762Z,16.20
2019-03-16T14:58:01.316Z,16.70
2019-03-16T15:00:38.810Z,16.50
2019-03-16T15:03:03.856Z,16.20
2019-03-16T15:05:34.956Z,16.10
2019-03-16T15:08:02.455Z,16.20
2019-03-16T15:10:30.050Z,15.80
2019-03-16T15:12:57.637Z,15.50
2019-03-16T15:15:25.275Z,15.50
2019-03-16T15:17:52.952Z,15.80
2019-03-16T15:20:20.613Z,16.30
2019-03-16T15:22:48.583Z,16.30
2019-03-16T15:25:16.221Z,16.30
2019-03-16T15:27:48.594Z,16.60
2019-03-16T15:30:16.335Z,16.60
2019-03-16T15:32:43.880Z,16.80
2019-03-16T15:35:11.636Z,16.90
2019-03-16T15:37:39.698Z,17.00
2019-03-16T15:40:08.257Z,17.20
2019-03-16T15:45:38.760Z,17.10
2019-03-16T15:48:43.150Z,17.20
2019-03-16T15:52:02.935Z,17.80
2019-03-16T15:54:34.373Z,18.30
2019-03-16T15:57:02.272Z,17.90
2019-03-16T15:59:31.056Z,17.70
2019-03-16T16:01:58.612Z,17.90
2019-03-16T16:04:26.205Z,17.90
2019-03-16T16:06:53.869Z,17.40
2019-03-16T16:09:21.579Z,17.10
2019-03-16T16:11:49.214Z,16.70
2019-03-16T16:14:16.964Z,16.50
2019-03-16T16:16:44.598Z,16.90
2019-03-16T16:19:14.523Z,16.60
2019-03-16T16:21:43.340Z,15.90
2019-03-16T16:24:11.074Z,15.30
2019-03-16T16:26:38.836Z,15.20
2019-03-16T16:29:06.484Z,14.70
2019-03-16T16:31:34.099Z,14.30
2019-03-16T16:34:02.958Z,14.10
2019-03-16T16:36:30.750Z,13.70
2019-03-16T16:39:00.178Z,13.20
2019-03-16T16:41:28.582Z,13.20
2019-03-16T16:43:56.800Z,13.10
2019-03-16T16:46:25.216Z,13.00
2019-03-16T16:48:52.859Z,12.80
2019-03-16T16:51:20.541Z,12.60
2019-03-16T16:53:48.242Z,12.30
2019-03-16T16:56:15.846Z,12.10
2019-03-16T16:58:43.482Z,11.80
2019-03-16T17:01:11.154Z,11.70
2019-03-16T17:03:38.773Z,11.50
2019-03-16T17:06:06.452Z,11.30
2019-03-16T17:08:34.108Z,11.20
2019-03-16T17:11:02.322Z,11.10
2019-03-16T17:13:31.393Z,10.90
2019-03-16T17:15:58.843Z,10.70
2019-03-16T17:18:26.516Z,10.50
2019-03-16T17:20:54.048Z,10.40
2019-03-16T17:23:21.647Z,10.30
2019-03-16T17:25:49.227Z,10.40
2019-03-16T17:28:16.766Z,10.20
2019-03-16T17:30:44.302Z,10.20
2019-03-16T17:33:11.861Z,10.00
2019-03-16T17:35:39.505Z,9.90
2019-03-16T17:38:06.998Z,9.80
2019-03-16T17:40:34.622Z,9.70
2019-03-16T17:43:02.229Z,9.70
2019-03-16T17:45:29.770Z,9.80
2019-03-16T17:47:57.338Z,9.70
2019-03-16T17:50:24.901Z,9.60
2019-03-16T17:52:52.461Z,9.50
2019-03-16T17:55:20.041Z,9.20
2019-03-16T17:57:47.613Z,9.10
2019-03-16T18:00:15.161Z,9.00
2019-03-16T18:02:51.258Z,8.90
2019-03-16T18:05:12.327Z,8.90
2019-03-16T18:07:39.828Z,8.90
2019-03-16T18:10:07.530Z,8.80
2019-03-16T18:12:35.211Z,8.70
2019-03-16T18:15:03.088Z,8.70
2019-03-16T18:17:30.647Z,8.60
2019-03-16T18:19:58.289Z,8.60
2019-03-16T18:22:26.078Z,8.50
2019-03-16T18:24:53.558Z,8.70
2019-03-16T18:27:21.203Z,8.70
2019-03-16T18:29:48.732Z,8.70
2019-03-16T18:32:16.249Z,8.70
2019-03-16T18:34:43.787Z,8.70
2019-03-16T18:37:11.372Z,8.60
2019-03-16T18:39:38.895Z,8.50
2019-03-16T18:42:06.406Z,8.50
2019-03-16T18:44:34.072Z,8.40
2019-03-16T18:47:01.632Z,8.30
2019-03-16T18:49:29.187Z,8.30
2019-03-16T18:51:56.737Z,8.10
2019-03-16T18:54:24.363Z,8.10
2019-03-16T18:56:52.489Z,8.00
2019-03-16T18:59:20.409Z,7.90
2019-03-16T19:01:48.174Z,7.90
2019-03-16T19:04:15.760Z,7.80
2019-03-16T19:06:43.339Z,7.80
2019-03-16T19:09:11.015Z,7.80
2019-03-16T19:11:38.535Z,7.80
2019-03-16T19:14:06.078Z,7.70
2019-03-16T19:16:33.662Z,7.70
2019-03-16T19:19:01.205Z,7.70
2019-03-16T19:21:28.785Z,7.60
2019-03-16T19:23:57.024Z,7.60
2019-03-16T19:26:24.935Z,7.60
2019-03-16T19:28:52.667Z,7.70
2019-03-16T19:31:21.712Z,7.70
2019-03-16T19:33:52.774Z,7.70
2019-03-16T19:36:20.818Z,7.60
2019-03-16T19:38:48.459Z,7.60
2019-03-16T19:41:16.108Z,7.40
2019-03-16T19:43:43.790Z,7.40
2019-03-16T19:46:11.406Z,7.40
2019-03-16T19:48:41.967Z,7.20
2019-03-16T19:51:10.758Z,7.10
2019-03-16T19:53:41.803Z,7.10
2019-03-16T19:56:11.693Z,7.10
2019-03-16T19:58:40.925Z,7.00
2019-03-16T20:01:11.496Z,7.10
2019-03-16T20:03:44.802Z,7.10
2019-03-16T20:06:25.238Z,7.00
2019-03-16T20:08:43.428Z,7.30
2019-03-16T20:11:11.826Z,7.00
2019-03-16T20:13:59.724Z,7.20
2019-03-16T20:16:37.913Z,6.80
2019-03-16T20:19:28.106Z,6.80
2019-03-16T20:22:02.366Z,6.80
2019-03-16T20:24:54.436Z,6.70
2019-03-16T20:27:23.696Z,6.80
2019-03-16T20:30:03.122Z,6.80
2019-03-16T20:32:35.049Z,7.00
2019-03-16T20:35:05.068Z,6.60
2019-03-16T20:37:56.744Z,6.50
2019-03-16T20:40:28.910Z,6.50
2019-03-16T20:43:37.347Z,6.50
2019-03-16T20:46:20.717Z,6.90
2019-03-16T20:49:09.280Z,6.60
2019-03-16T20:52:23.477Z,6.60
2019-03-16T20:54:54.396Z,6.50
2019-03-16T20:57:42.598Z,6.50
2019-03-16T21:00:12.298Z,6.60
2019-03-16T21:03:22.333Z,6.60
2019-03-16T21:05:58.616Z,6.60
2019-03-16T21:08:28.484Z,6.60
2019-03-16T21:11:00.555Z,6.50
2019-03-16T21:13:33.652Z,6.50
2019-03-16T21:16:06.297Z,6.40
2019-03-16T21:18:37.257Z,6.40
2019-03-16T21:21:10.530Z,6.30
2019-03-16T21:23:46.222Z,6.30
2019-03-16T21:26:14.791Z,6.10
2019-03-16T21:28:49.255Z,6.10
2019-03-16T21:31:22.052Z,6.00
2019-03-16T21:33:55.725Z,5.90
2019-03-16T21:37:15.782Z,6.00
2019-03-16T21:44:04.269Z,5.80
2019-03-16T21:47:28.318Z,5.70
2019-03-16T21:49:58.793Z,5.70
2019-03-16T21:56:00.326Z,5.50
2019-03-16T21:59:00.748Z,5.50
2019-03-16T22:05:04.819Z,5.40
2019-03-16T22:08:04.816Z,5.50
2019-03-16T22:10:34.525Z,5.60
2019-03-16T22:13:07.767Z,5.60
2019-03-16T22:15:41.758Z,5.80
2019-03-16T22:18:20.177Z,5.80
2019-03-16T22:20:55.820Z,5.80
2019-03-16T22:23:24.413Z,5.90
2019-03-16T22:25:57.484Z,6.10
2019-03-16T22:28:45.873Z,5.80
2019-03-16T22:31:19.761Z,5.70
2019-03-16T22:33:58.807Z,5.80
2019-03-16T22:36:30.132Z,5.80
2019-03-16T22:39:19.331Z,5.90
2019-03-16T22:42:19.075Z,5.90
2019-03-16T22:44:57.870Z,5.80
2019-03-16T22:47:26.972Z,5.90
2019-03-16T22:49:55.543Z,5.80
2019-03-16T22:52:31.566Z,5.70
2019-03-16T22:55:09.900Z,5.60
2019-03-16T22:57:39.915Z,5.50
2019-03-16T23:00:12.152Z,5.60
2019-03-16T23:02:43.106Z,5.10
2019-03-16T23:05:10.927Z,4.80
2019-03-16T23:07:38.545Z,4.80
2019-03-16T23:10:07.549Z,4.90
2019-03-16T23:12:35.192Z,4.80
2019-03-16T23:15:03.377Z,4.80
2019-03-16T23:17:31.217Z,4.90
2019-03-16T23:19:58.778Z,4.80
2019-03-16T23:22:26.529Z,4.80
2019-03-16T23:24:54.150Z,4.70
2019-03-16T23:27:21.889Z,4.70
2019-03-16T23:29:49.517Z,4.70
2019-03-16T23:32:17.687Z,4.70
2019-03-16T23:34:45.200Z,4.80
2019-03-16T23:37:12.850Z,4.70
2019-03-16T23:39:40.468Z,4.70
2019-03-16T23:42:08.081Z,4.50
2019-03-16T23:44:36.110Z,4.50
2019-03-16T23:47:03.794Z,4.40
2019-03-16T23:49:31.382Z,4.30
2019-03-16T23:51:58.989Z,4.30
2019-03-16T23:54:26.717Z,4.20
2019-03-16T23:56:55.019Z,4.10
2019-03-16T23:59:22.796Z,4.00
